Back to Top

Language: 

My Weather Underground Personal Weather Station Historical Data with Graphs...

Delerius Weather Station Historical Data
Daily Summary for June 23, 2017 Units:  English    Metric   Both
« Previous Day
Next Day »
Daily Weekly Monthly Yearly Custom
  High: Low: Average:
Temperature: 66.2 °F 57.9 °F 61.8 °F
Dew Point: 58.4 °F 52.1 °F 55.6 °F
Humidity: 89 % 75 % 80 %
Wind Speed: 18.0 mph 1.0 mph 9.7 mph
Wind Gust: 33.0 mph - -
Wind:- - WSW
Pressure: 29.89 in 29.83 in -
Precipitation: 0.02 in    
Historical Graphs
 
 
Tabular Data for June 23, 2017
Time Temperature Dew Point Pressure Wind Wind Speed Wind Gust Humidity Rainfall Rate (Hourly) solar Conditions
00:01 58.6 °F 52.5 °F 29.88 in WSW 2.0 mph 6.0 mph 80 % 0.00 in 0 W/m2
00:06 58.6 °F 52.5 °F 29.88 in West 3.0 mph 9.0 mph 80 % 0.00 in 0 W/m2
00:11 58.6 °F 52.5 °F 29.88 in West 5.0 mph 9.0 mph 80 % 0.00 in 0 W/m2
00:16 58.6 °F 52.5 °F 29.88 in West 5.0 mph 9.0 mph 80 % 0.00 in 0 W/m2
00:21 58.6 °F 52.8 °F 29.88 in West 6.0 mph 10.0 mph 81 % 0.00 in 0 W/m2
00:26 58.6 °F 52.8 °F 29.88 in West 6.0 mph 10.0 mph 81 % 0.00 in 0 W/m2
00:31 58.6 °F 52.8 °F 29.88 in West 5.0 mph 8.0 mph 81 % 0.00 in 0 W/m2
00:36 58.6 °F 52.8 °F 29.88 in West 3.0 mph 7.0 mph 81 % 0.00 in 0 W/m2
00:42 58.6 °F 52.8 °F 29.88 in WSW 3.0 mph 7.0 mph 81 % 0.00 in 0 W/m2
00:47 58.6 °F 52.8 °F 29.88 in SW 3.0 mph 8.0 mph 81 % 0.00 in 0 W/m2
00:52 58.6 °F 52.8 °F 29.88 in WSW 5.0 mph 10.0 mph 81 % 0.00 in 0 W/m2
00:57 58.6 °F 52.8 °F 29.88 in WSW 6.0 mph 12.0 mph 81 % 0.00 in 0 W/m2
01:02 58.6 °F 52.8 °F 29.88 in WSW 6.0 mph 12.0 mph 81 % 0.00 in 0 W/m2
01:07 58.6 °F 52.8 °F 29.87 in WSW 6.0 mph 10.0 mph 81 % 0.00 in 0 W/m2
01:12 58.6 °F 52.5 °F 29.87 in WSW 6.0 mph 10.0 mph 80 % 0.00 in 0 W/m2
01:17 58.8 °F 52.7 °F 29.87 in WSW 8.0 mph 15.0 mph 80 % 0.00 in 0 W/m2
01:22 58.8 °F 52.7 °F 29.87 in West 9.0 mph 15.0 mph 80 % 0.00 in 0 W/m2
01:27 58.8 °F 52.7 °F 29.87 in West 8.0 mph 13.0 mph 80 % 0.00 in 0 W/m2
01:32 58.8 °F 52.7 °F 29.88 in West 6.0 mph 13.0 mph 80 % 0.00 in 0 W/m2
01:37 58.6 °F 52.5 °F 29.88 in WSW 6.0 mph 10.0 mph 80 % 0.00 in 0 W/m2
01:42 58.6 °F 52.5 °F 29.88 in WSW 7.0 mph 16.0 mph 80 % 0.00 in 0 W/m2
01:47 58.8 °F 52.7 °F 29.88 in WSW 9.0 mph 16.0 mph 80 % 0.00 in 0 W/m2
01:52 58.8 °F 52.7 °F 29.87 in West 8.0 mph 14.0 mph 80 % 0.00 in 0 W/m2
01:57 58.8 °F 52.7 °F 29.87 in West 9.0 mph 15.0 mph 80 % 0.00 in 0 W/m2
02:02 58.8 °F 52.7 °F 29.87 in WSW 9.0 mph 15.0 mph 80 % 0.00 in 0 W/m2
02:07 58.8 °F 52.3 °F 29.87 in West 10.0 mph 19.0 mph 79 % 0.00 in 0 W/m2
02:12 58.8 °F 52.7 °F 29.87 in WSW 9.0 mph 19.0 mph 80 % 0.00 in 0 W/m2
02:17 58.8 °F 52.7 °F 29.87 in WSW 8.0 mph 16.0 mph 80 % 0.00 in 0 W/m2
02:22 58.8 °F 52.3 °F 29.87 in West 9.0 mph 16.0 mph 79 % 0.00 in 0 W/m2
02:27 58.8 °F 52.3 °F 29.87 in West 9.0 mph 18.0 mph 79 % 0.00 in 0 W/m2
02:28 58.8 °F 52.3 °F 29.86 in West 9.0 mph 18.0 mph 79 % 0.00 in 0 W/m2
02:33 58.6 °F 52.1 °F 29.86 in West 8.0 mph 18.0 mph 79 % 0.00 in 0 W/m2
02:38 58.6 °F 52.1 °F 29.86 in West 7.0 mph 13.0 mph 79 % 0.00 in 0 W/m2
02:43 58.6 °F 52.5 °F 29.86 in WSW 6.0 mph 12.0 mph 80 % 0.00 in 0 W/m2
02:48 58.6 °F 52.1 °F 29.86 in WSW 6.0 mph 13.0 mph 79 % 0.00 in 0 W/m2
02:53 58.6 °F 52.1 °F 29.86 in WSW 6.0 mph 13.0 mph 79 % 0.00 in 0 W/m2
02:58 58.6 °F 52.1 °F 29.85 in SW 5.0 mph 11.0 mph 79 % 0.00 in 0 W/m2
03:03 58.6 °F 52.1 °F 29.86 in SW 6.0 mph 12.0 mph 79 % 0.00 in 0 W/m2
03:08 58.6 °F 52.1 °F 29.85 in SW 7.0 mph 15.0 mph 79 % 0.00 in 0 W/m2
03:13 58.6 °F 52.1 °F 29.85 in WSW 8.0 mph 16.0 mph 79 % 0.00 in 0 W/m2
03:18 58.6 °F 52.1 °F 29.85 in WSW 9.0 mph 16.0 mph 79 % 0.00 in 0 W/m2
03:24 58.6 °F 52.1 °F 29.85 in WSW 10.0 mph 20.0 mph 79 % 0.00 in 0 W/m2
03:29 58.6 °F 52.1 °F 29.84 in WSW 9.0 mph 20.0 mph 79 % 0.00 in 0 W/m2
03:33 58.6 °F 52.1 °F 29.85 in WSW 9.0 mph 16.0 mph 79 % 0.00 in 0 W/m2
03:39 58.6 °F 52.1 °F 29.85 in WSW 9.0 mph 19.0 mph 79 % 0.00 in 0 W/m2
03:44 58.6 °F 52.1 °F 29.85 in WSW 9.0 mph 19.0 mph 79 % 0.00 in 0 W/m2
03:49 58.6 °F 52.1 °F 29.84 in WSW 9.0 mph 19.0 mph 79 % 0.00 in 0 W/m2
03:54 58.6 °F 52.1 °F 29.84 in WSW 9.0 mph 18.0 mph 79 % 0.00 in 0 W/m2
03:59 58.6 °F 52.1 °F 29.84 in WSW 9.0 mph 15.0 mph 79 % 0.00 in 0 W/m2
04:04 58.6 °F 52.1 °F 29.84 in WSW 9.0 mph 14.0 mph 79 % 0.00 in 0 W/m2
04:09 58.8 °F 52.3 °F 29.84 in WSW 10.0 mph 16.0 mph 79 % 0.00 in 0 W/m2
04:14 58.8 °F 52.3 °F 29.84 in SW 11.0 mph 20.0 mph 79 % 0.00 in 0 W/m2
04:19 58.8 °F 52.3 °F 29.84 in SW 11.0 mph 20.0 mph 79 % 0.00 in 0 W/m2
04:24 58.8 °F 52.3 °F 29.84 in SW 11.0 mph 16.0 mph 79 % 0.00 in 0 W/m2
04:29 58.8 °F 52.3 °F 29.85 in SW 11.0 mph 20.0 mph 79 % 0.00 in 0 W/m2
04:34 58.8 °F 52.3 °F 29.85 in SW 10.0 mph 20.0 mph 79 % 0.00 in 0 W/m2
04:39 58.8 °F 52.3 °F 29.84 in SW 9.0 mph 18.0 mph 79 % 0.00 in 0 W/m2
04:44 58.8 °F 52.3 °F 29.84 in SW 10.0 mph 15.0 mph 79 % 0.00 in 0 W/m2
04:49 58.8 °F 52.7 °F 29.84 in SW 9.0 mph 15.0 mph 80 % 0.00 in 5 W/m2
04:54 58.8 °F 52.3 °F 29.84 in SW 8.0 mph 14.0 mph 79 % 0.00 in 5 W/m2
04:59 58.8 °F 52.7 °F 29.84 in SW 9.0 mph 13.0 mph 80 % 0.00 in 7 W/m2
05:04 58.8 °F 52.7 °F 29.84 in SW 9.0 mph 13.0 mph 80 % 0.00 in 9 W/m2
05:05 58.8 °F 52.7 °F 29.84 in SW 9.0 mph 13.0 mph 80 % 0.00 in 9 W/m2
05:10 58.8 °F 52.7 °F 29.83 in WSW 9.0 mph 16.0 mph 80 % 0.00 in 11 W/m2
05:15 58.8 °F 52.7 °F 29.83 in WSW 9.0 mph 16.0 mph 80 % 0.00 in 11 W/m2
05:20 58.8 °F 52.7 °F 29.83 in WSW 10.0 mph 18.0 mph 80 % 0.00 in 11 W/m2
05:25 58.8 °F 52.7 °F 29.83 in WSW 9.0 mph 18.0 mph 80 % 0.00 in 12 W/m2
05:30 59.0 °F 52.5 °F 29.83 in WSW 10.0 mph 18.0 mph 79 % 0.00 in 14 W/m2
05:35 59.2 °F 52.7 °F 29.83 in West 10.0 mph 18.0 mph 79 % 0.00 in 14 W/m2
05:40 59.2 °F 52.7 °F 29.83 in WSW 9.0 mph 20.0 mph 79 % 0.00 in 18 W/m2
05:45 59.4 °F 52.8 °F 29.83 in WSW 12.0 mph 25.0 mph 79 % 0.00 in 18 W/m2
05:50 59.4 °F 52.8 °F 29.84 in WSW 11.0 mph 25.0 mph 79 % 0.00 in 14 W/m2
05:55 59.4 °F 52.8 °F 29.84 in WSW 10.0 mph 20.0 mph 79 % 0.00 in 16 W/m2
05:56 59.4 °F 52.8 °F 29.84 in WSW 10.0 mph 20.0 mph 79 % 0.00 in 16 W/m2
06:01 59.5 °F 53.4 °F 29.84 in WSW 10.0 mph 20.0 mph 80 % 0.00 in 14 W/m2
06:06 59.4 °F 53.5 °F 29.84 in WSW 7.0 mph 16.0 mph 81 % 0.00 in 14 W/m2
06:11 59.0 °F 53.5 °F 29.84 in SW 7.0 mph 12.0 mph 82 % 0.00 in 14 W/m2
06:16 58.6 °F 53.5 °F 29.83 in SW 6.0 mph 12.0 mph 83 % 0.00 in 14 W/m2
06:21 58.5 °F 54.0 °F 29.83 in SW 4.0 mph 8.0 mph 85 % 0.00 in 18 W/m2
06:31 58.3 °F 53.8 °F 29.84 in WSW 2.0 mph 6.0 mph 85 % 0.00 in 21 W/m2
06:36 58.3 °F 53.8 °F 29.83 in West 1.0 mph 6.0 mph 85 % 0.00 in 32 W/m2
06:41 58.3 °F 53.8 °F 29.84 in WSW 2.0 mph 11.0 mph 85 % 0.00 in 25 W/m2
06:46 58.3 °F 53.5 °F 29.84 in WSW 2.0 mph 11.0 mph 84 % 0.00 in 25 W/m2
06:51 58.3 °F 53.8 °F 29.84 in West 2.0 mph 9.0 mph 85 % 0.00 in 37 W/m2
06:53 58.5 °F 54.0 °F 29.84 in WNW 3.0 mph 9.0 mph 85 % 0.01 in 40 W/m2
06:58 58.3 °F 54.1 °F 29.84 in West 5.0 mph 9.0 mph 86 % 0.02 in 33 W/m2
07:03 58.3 °F 54.1 °F 29.84 in West 5.0 mph 12.0 mph 86 % 0.02 in 47 W/m2
07:08 57.9 °F 53.8 °F 29.84 in West 5.0 mph 12.0 mph 86 % 0.02 in 49 W/m2
07:13 57.9 °F 53.8 °F 29.84 in West 5.0 mph 11.0 mph 86 % 0.02 in 54 W/m2
07:18 57.9 °F 54.1 °F 29.84 in West 4.0 mph 10.0 mph 87 % 0.02 in 67 W/m2
07:23 57.9 °F 53.8 °F 29.84 in West 6.0 mph 18.0 mph 86 % 0.02 in 88 W/m2
07:28 58.1 °F 53.9 °F 29.84 in WSW 9.0 mph 18.0 mph 86 % 0.02 in 121 W/m2
07:33 58.3 °F 53.8 °F 29.84 in WSW 10.0 mph 20.0 mph 85 % 0.02 in 148 W/m2
07:38 58.6 °F 54.1 °F 29.84 in West 10.0 mph 20.0 mph 85 % 0.02 in 162 W/m2
07:43 58.8 °F 54.3 °F 29.84 in West 8.0 mph 18.0 mph 85 % 0.02 in 160 W/m2
07:48 59.0 °F 54.5 °F 29.84 in West 8.0 mph 15.0 mph 85 % 0.02 in 207 W/m2
07:53 59.4 °F 54.5 °F 29.84 in West 10.0 mph 20.0 mph 84 % 0.01 in 204 W/m2
07:58 59.7 °F 54.5 °F 29.83 in WSW 13.0 mph 23.0 mph 83 % 0.00 in 162 W/m2
08:03 59.7 °F 54.2 °F 29.84 in WSW 16.0 mph 29.0 mph 82 % 0.00 in 128 W/m2
08:08 60.1 °F 54.2 °F 29.83 in WSW 17.0 mph 29.0 mph 81 % 0.00 in 135 W/m2
08:13 60.3 °F 54.4 °F 29.84 in WSW 16.0 mph 28.0 mph 81 % 0.00 in 137 W/m2
08:18 60.3 °F 54.1 °F 29.83 in WSW 17.0 mph 30.0 mph 80 % 0.00 in 141 W/m2
08:23 60.3 °F 54.1 °F 29.84 in West 17.0 mph 30.0 mph 80 % 0.00 in 149 W/m2
08:29 60.4 °F 54.2 °F 29.84 in West 17.0 mph 30.0 mph 80 % 0.00 in 141 W/m2
08:34 60.3 °F 54.1 °F 29.84 in West 18.0 mph 31.0 mph 80 % 0.00 in 156 W/m2
08:39 60.3 °F 54.4 °F 29.84 in West 18.0 mph 33.0 mph 81 % 0.00 in 160 W/m2
08:44 60.1 °F 54.2 °F 29.84 in West 17.0 mph 33.0 mph 81 % 0.00 in 162 W/m2
08:49 60.1 °F 54.2 °F 29.84 in West 16.0 mph 29.0 mph 81 % 0.00 in 165 W/m2
08:54 60.1 °F 54.2 °F 29.84 in WSW 17.0 mph 29.0 mph 81 % 0.00 in 214 W/m2
08:56 60.1 °F 54.2 °F 29.84 in West 18.0 mph 29.0 mph 81 % 0.00 in 306 W/m2
09:01 60.4 °F 54.6 °F 29.84 in West 17.0 mph 27.0 mph 81 % 0.00 in 188 W/m2
09:06 60.6 °F 54.4 °F 29.84 in WSW 18.0 mph 31.0 mph 80 % 0.00 in 192 W/m2
09:11 60.6 °F 54.8 °F 29.85 in WSW 17.0 mph 31.0 mph 81 % 0.00 in 171 W/m2
09:16 60.6 °F 54.8 °F 29.85 in WSW 13.0 mph 25.0 mph 81 % 0.00 in 139 W/m2
09:21 60.6 °F 54.8 °F 29.85 in WSW 14.0 mph 25.0 mph 81 % 0.00 in 128 W/m2
09:26 60.4 °F 54.6 °F 29.85 in WSW 15.0 mph 25.0 mph 81 % 0.00 in 93 W/m2
09:31 60.4 °F 54.6 °F 29.85 in WSW 13.0 mph 23.0 mph 81 % 0.00 in 91 W/m2
09:36 60.4 °F 54.6 °F 29.85 in WSW 11.0 mph 20.0 mph 81 % 0.00 in 105 W/m2
09:41 60.6 °F 54.8 °F 29.86 in WSW 11.0 mph 20.0 mph 81 % 0.00 in 107 W/m2
09:46 60.6 °F 55.1 °F 29.85 in West 11.0 mph 20.0 mph 82 % 0.00 in 114 W/m2
09:51 60.6 °F 55.1 °F 29.86 in WSW 10.0 mph 20.0 mph 82 % 0.00 in 130 W/m2
09:56 60.6 °F 55.1 °F 29.86 in West 12.0 mph 21.0 mph 82 % 0.00 in 121 W/m2
10:01 60.8 °F 54.9 °F 29.86 in West 13.0 mph 21.0 mph 81 % 0.00 in 142 W/m2
10:06 61.0 °F 55.1 °F 29.85 in West 13.0 mph 24.0 mph 81 % 0.00 in 174 W/m2
10:11 61.2 °F 55.6 °F 29.85 in West 12.0 mph 24.0 mph 82 % 0.00 in 178 W/m2
10:16 61.2 °F 55.3 °F 29.85 in WSW 12.0 mph 31.0 mph 81 % 0.00 in 146 W/m2
10:22 61.0 °F 55.1 °F 29.85 in WSW 14.0 mph 31.0 mph 81 % 0.00 in 135 W/m2
10:27 61.0 °F 55.1 °F 29.85 in WSW 14.0 mph 25.0 mph 81 % 0.00 in 135 W/m2
10:32 61.0 °F 55.1 °F 29.85 in WSW 15.0 mph 25.0 mph 81 % 0.00 in 146 W/m2
10:37 61.2 °F 55.3 °F 29.85 in WSW 15.0 mph 25.0 mph 81 % 0.00 in 329 W/m2
10:42 61.5 °F 55.6 °F 29.85 in WSW 14.0 mph 25.0 mph 81 % 0.00 in 338 W/m2
10:52 62.2 °F 56.0 °F 29.85 in WSW 14.0 mph 24.0 mph 80 % 0.00 in 295 W/m2
10:57 62.4 °F 56.2 °F 29.85 in WSW 13.0 mph 22.0 mph 80 % 0.00 in 265 W/m2
11:02 62.4 °F 56.2 °F 29.85 in WSW 15.0 mph 24.0 mph 80 % 0.00 in 297 W/m2
11:07 62.6 °F 56.0 °F 29.85 in WSW 16.0 mph 27.0 mph 79 % 0.00 in 392 W/m2
11:12 62.8 °F 56.2 °F 29.86 in WSW 16.0 mph 27.0 mph 79 % 0.00 in 304 W/m2
11:17 63.1 °F 56.5 °F 29.85 in WSW 14.0 mph 24.0 mph 79 % 0.00 in 287 W/m2
11:22 63.1 °F 56.2 °F 29.86 in WSW 14.0 mph 24.0 mph 78 % 0.00 in 294 W/m2
11:27 63.3 °F 56.3 °F 29.86 in WSW 14.0 mph 23.0 mph 78 % 0.00 in 325 W/m2
11:32 63.5 °F 56.2 °F 29.86 in West 15.0 mph 26.0 mph 77 % 0.00 in 348 W/m2
11:37 63.7 °F 56.3 °F 29.86 in West 15.0 mph 26.0 mph 77 % 0.00 in 383 W/m2
11:42 64.0 °F 56.7 °F 29.86 in West 13.0 mph 25.0 mph 77 % 0.00 in 432 W/m2
11:47 64.0 °F 56.7 °F 29.86 in West 14.0 mph 25.0 mph 77 % 0.00 in 445 W/m2
11:52 64.2 °F 56.5 °F 29.86 in WSW 16.0 mph 27.0 mph 76 % 0.00 in 425 W/m2
11:57 64.0 °F 56.3 °F 29.86 in WSW 17.0 mph 27.0 mph 76 % 0.00 in 251 W/m2
12:02 63.9 °F 56.1 °F 29.86 in WSW 16.0 mph 28.0 mph 76 % 0.00 in 218 W/m2
12:07 63.7 °F 56.0 °F 29.86 in WSW 14.0 mph 28.0 mph 76 % 0.00 in 213 W/m2
12:12 63.7 °F 56.3 °F 29.86 in WSW 13.0 mph 26.0 mph 77 % 0.00 in 248 W/m2
12:17 63.7 °F 56.3 °F 29.87 in West 12.0 mph 20.0 mph 77 % 0.00 in 255 W/m2
12:22 63.9 °F 56.5 °F 29.87 in West 11.0 mph 19.0 mph 77 % 0.00 in 281 W/m2
12:27 64.0 °F 56.7 °F 29.87 in WSW 11.0 mph 18.0 mph 77 % 0.00 in 230 W/m2
12:32 64.0 °F 56.7 °F 29.86 in WSW 11.0 mph 19.0 mph 77 % 0.00 in 195 W/m2
12:37 64.0 °F 56.3 °F 29.86 in WSW 12.0 mph 21.0 mph 76 % 0.00 in 167 W/m2
12:42 64.0 °F 56.7 °F 29.87 in WSW 12.0 mph 21.0 mph 77 % 0.00 in 151 W/m2
12:47 64.0 °F 56.7 °F 29.87 in WSW 10.0 mph 19.0 mph 77 % 0.00 in 169 W/m2
12:52 64.0 °F 56.7 °F 29.87 in WSW 11.0 mph 20.0 mph 77 % 0.00 in 199 W/m2
12:57 64.2 °F 56.9 °F 29.86 in WSW 11.0 mph 20.0 mph 77 % 0.00 in 272 W/m2
13:02 64.4 °F 57.0 °F 29.87 in WSW 12.0 mph 19.0 mph 77 % 0.00 in 229 W/m2
13:03 64.4 °F 57.0 °F 29.87 in WSW 12.0 mph 19.0 mph 77 % 0.00 in 221 W/m2
13:08 64.6 °F 57.2 °F 29.87 in WSW 12.0 mph 19.0 mph 77 % 0.00 in 200 W/m2
13:13 64.6 °F 57.2 °F 29.87 in WSW 12.0 mph 22.0 mph 77 % 0.00 in 158 W/m2
13:14 64.6 °F 57.2 °F 29.87 in WSW 12.0 mph 22.0 mph 77 % 0.00 in 153 W/m2
13:19 64.4 °F 57.0 °F 29.88 in WSW 12.0 mph 22.0 mph 77 % 0.00 in 137 W/m2
13:24 64.2 °F 57.2 °F 29.88 in WSW 10.0 mph 18.0 mph 78 % 0.00 in 135 W/m2
13:29 64.0 °F 57.0 °F 29.87 in WSW 11.0 mph 20.0 mph 78 % 0.00 in 258 W/m2
13:34 63.9 °F 57.2 °F 29.87 in WSW 12.0 mph 20.0 mph 79 % 0.00 in 258 W/m2
13:39 63.7 °F 57.4 °F 29.88 in WSW 11.0 mph 19.0 mph 80 % 0.00 in 195 W/m2
13:44 63.7 °F 57.4 °F 29.88 in WSW 9.0 mph 16.0 mph 80 % 0.00 in 156 W/m2
13:49 63.7 °F 57.7 °F 29.88 in WSW 9.0 mph 21.0 mph 81 % 0.00 in 149 W/m2
13:54 63.7 °F 57.7 °F 29.88 in WSW 10.0 mph 21.0 mph 81 % 0.00 in 104 W/m2
13:59 63.5 °F 57.6 °F 29.88 in WSW 10.0 mph 18.0 mph 81 % 0.00 in 109 W/m2
14:04 63.3 °F 57.4 °F 29.88 in WSW 11.0 mph 19.0 mph 81 % 0.00 in 125 W/m2
14:09 63.1 °F 57.2 °F 29.88 in WSW 11.0 mph 19.0 mph 81 % 0.00 in 181 W/m2
14:14 63.1 °F 57.6 °F 29.89 in WSW 11.0 mph 20.0 mph 82 % 0.00 in 172 W/m2
14:19 63.3 °F 57.7 °F 29.88 in WSW 9.0 mph 20.0 mph 82 % 0.00 in 160 W/m2
14:24 63.3 °F 57.7 °F 29.88 in WSW 8.0 mph 12.0 mph 82 % 0.00 in 225 W/m2
14:29 63.7 °F 57.7 °F 29.88 in WSW 9.0 mph 15.0 mph 81 % 0.00 in 220 W/m2
14:34 63.9 °F 57.6 °F 29.87 in WSW 10.0 mph 16.0 mph 80 % 0.00 in 297 W/m2
14:39 64.2 °F 57.9 °F 29.87 in WSW 9.0 mph 16.0 mph 80 % 0.00 in 204 W/m2
14:44 64.6 °F 57.9 °F 29.87 in SW 9.0 mph 19.0 mph 79 % 0.00 in 148 W/m2
14:49 64.6 °F 57.9 °F 29.87 in SW 10.0 mph 19.0 mph 79 % 0.00 in 174 W/m2
14:54 64.4 °F 57.7 °F 29.87 in SW 11.0 mph 19.0 mph 79 % 0.00 in 139 W/m2
14:59 64.2 °F 57.6 °F 29.87 in SW 10.0 mph 19.0 mph 79 % 0.00 in 135 W/m2
15:04 64.2 °F 57.6 °F 29.87 in SW 9.0 mph 20.0 mph 79 % 0.00 in 144 W/m2
15:09 64.2 °F 57.6 °F 29.87 in SW 9.0 mph 20.0 mph 79 % 0.00 in 90 W/m2
15:14 64.2 °F 57.9 °F 29.87 in WSW 9.0 mph 16.0 mph 80 % 0.00 in 79 W/m2
15:19 64.2 °F 57.9 °F 29.87 in WSW 8.0 mph 15.0 mph 80 % 0.00 in 63 W/m2
15:24 64.0 °F 57.7 °F 29.86 in SW 8.0 mph 14.0 mph 80 % 0.00 in 79 W/m2
15:29 64.0 °F 57.7 °F 29.86 in SW 8.0 mph 14.0 mph 80 % 0.00 in 97 W/m2
15:34 63.9 °F 57.2 °F 29.86 in WSW 9.0 mph 14.0 mph 79 % 0.00 in 111 W/m2
15:39 64.0 °F 57.4 °F 29.86 in WSW 9.0 mph 18.0 mph 79 % 0.00 in 167 W/m2
15:44 64.4 °F 57.4 °F 29.86 in WSW 9.0 mph 19.0 mph 78 % 0.00 in 350 W/m2
15:50 64.9 °F 57.6 °F 29.87 in WSW 10.0 mph 19.0 mph 77 % 0.00 in 352 W/m2
15:55 65.5 °F 58.1 °F 29.86 in WSW 9.0 mph 19.0 mph 77 % 0.00 in 411 W/m2
16:00 65.8 °F 58.4 °F 29.86 in WSW 9.0 mph 18.0 mph 77 % 0.00 in 338 W/m2
16:05 66.0 °F 57.9 °F 29.87 in WSW 11.0 mph 23.0 mph 75 % 0.00 in 253 W/m2
16:10 65.8 °F 57.7 °F 29.86 in WSW 13.0 mph 23.0 mph 75 % 0.00 in 200 W/m2
16:15 65.8 °F 57.7 °F 29.87 in WSW 12.0 mph 20.0 mph 75 % 0.00 in 190 W/m2
16:20 65.8 °F 58.1 °F 29.87 in WSW 11.0 mph 19.0 mph 76 % 0.00 in 200 W/m2
16:25 65.8 °F 57.7 °F 29.87 in WSW 13.0 mph 21.0 mph 75 % 0.00 in 221 W/m2
16:30 65.8 °F 57.7 °F 29.87 in WSW 13.0 mph 25.0 mph 75 % 0.00 in 220 W/m2
16:35 66.0 °F 57.9 °F 29.87 in WSW 11.0 mph 25.0 mph 75 % 0.00 in 237 W/m2
16:40 66.2 °F 58.0 °F 29.87 in WSW 10.0 mph 19.0 mph 75 % 0.00 in 162 W/m2
16:50 66.0 °F 58.2 °F 29.87 in SW 11.0 mph 21.0 mph 76 % 0.00 in 118 W/m2
16:55 65.8 °F 58.1 °F 29.87 in WSW 11.0 mph 21.0 mph 76 % 0.00 in 139 W/m2
17:00 65.7 °F 57.5 °F 29.87 in WSW 12.0 mph 22.0 mph 75 % 0.00 in 165 W/m2
17:05 65.7 °F 57.9 °F 29.86 in WSW 13.0 mph 22.0 mph 76 % 0.00 in 181 W/m2
17:10 65.8 °F 57.7 °F 29.86 in WSW 12.0 mph 21.0 mph 75 % 0.00 in 195 W/m2
17:15 65.8 °F 57.7 °F 29.86 in WSW 11.0 mph 21.0 mph 75 % 0.00 in 251 W/m2
17:20 66.0 °F 57.9 °F 29.86 in WSW 12.0 mph 20.0 mph 75 % 0.00 in 250 W/m2
17:25 66.0 °F 57.9 °F 29.86 in WSW 14.0 mph 23.0 mph 75 % 0.00 in 181 W/m2
17:30 66.0 °F 57.9 °F 29.86 in WSW 12.0 mph 23.0 mph 75 % 0.00 in 155 W/m2
17:35 66.0 °F 57.9 °F 29.86 in WSW 11.0 mph 19.0 mph 75 % 0.00 in 155 W/m2
17:40 65.8 °F 57.7 °F 29.86 in WSW 12.0 mph 21.0 mph 75 % 0.00 in 162 W/m2
17:45 66.0 °F 57.9 °F 29.86 in WSW 10.0 mph 21.0 mph 75 % 0.00 in 135 W/m2
17:50 66.0 °F 57.9 °F 29.86 in WSW 10.0 mph 19.0 mph 75 % 0.00 in 105 W/m2
17:56 66.0 °F 57.9 °F 29.86 in WSW 10.0 mph 16.0 mph 75 % 0.00 in 137 W/m2
18:01 65.8 °F 58.1 °F 29.87 in WSW 10.0 mph 18.0 mph 76 % 0.00 in 181 W/m2
18:06 65.8 °F 58.1 °F 29.86 in WSW 11.0 mph 18.0 mph 76 % 0.00 in 144 W/m2
18:11 65.7 °F 57.9 °F 29.86 in WSW 12.0 mph 19.0 mph 76 % 0.00 in 120 W/m2
18:16 65.7 °F 58.3 °F 29.86 in WSW 10.0 mph 21.0 mph 77 % 0.00 in 102 W/m2
18:21 65.7 °F 57.9 °F 29.86 in WSW 10.0 mph 21.0 mph 76 % 0.00 in 105 W/m2
18:26 65.7 °F 58.3 °F 29.86 in WSW 9.0 mph 16.0 mph 77 % 0.00 in 146 W/m2
18:31 65.7 °F 58.3 °F 29.86 in WSW 8.0 mph 13.0 mph 77 % 0.00 in 142 W/m2
18:36 65.7 °F 57.9 °F 29.86 in West 9.0 mph 15.0 mph 76 % 0.00 in 98 W/m2
18:41 65.7 °F 57.9 °F 29.86 in West 10.0 mph 18.0 mph 76 % 0.00 in 91 W/m2
18:46 65.5 °F 57.7 °F 29.86 in West 10.0 mph 19.0 mph 76 % 0.00 in 100 W/m2
18:51 65.5 °F 57.7 °F 29.86 in West 10.0 mph 19.0 mph 76 % 0.00 in 98 W/m2
18:56 65.5 °F 58.1 °F 29.86 in WSW 9.0 mph 19.0 mph 77 % 0.00 in 93 W/m2
19:01 65.3 °F 57.9 °F 29.86 in WSW 9.0 mph 16.0 mph 77 % 0.00 in 84 W/m2
19:06 65.1 °F 57.7 °F 29.86 in WSW 10.0 mph 16.0 mph 77 % 0.00 in 74 W/m2
19:11 65.1 °F 57.7 °F 29.86 in WSW 9.0 mph 15.0 mph 77 % 0.00 in 76 W/m2
19:16 65.1 °F 57.7 °F 29.86 in WSW 10.0 mph 19.0 mph 77 % 0.00 in 53 W/m2
19:21 64.9 °F 57.6 °F 29.86 in WSW 11.0 mph 19.0 mph 77 % 0.00 in 49 W/m2
19:26 64.8 °F 57.4 °F 29.86 in WSW 10.0 mph 18.0 mph 77 % 0.00 in 51 W/m2
19:32 64.8 °F 57.7 °F 29.86 in WSW 8.0 mph 14.0 mph 78 % 0.00 in 42 W/m2
19:37 64.6 °F 57.6 °F 29.86 in WSW 9.0 mph 14.0 mph 78 % 0.00 in 30 W/m2
19:42 64.6 °F 57.6 °F 29.86 in WSW 8.0 mph 14.0 mph 78 % 0.00 in 26 W/m2
19:47 64.4 °F 57.4 °F 29.86 in West 7.0 mph 12.0 mph 78 % 0.00 in 19 W/m2
19:52 64.2 °F 57.6 °F 29.86 in West 9.0 mph 14.0 mph 79 % 0.00 in 21 W/m2
19:57 64.2 °F 57.6 °F 29.86 in West 10.0 mph 14.0 mph 79 % 0.00 in 16 W/m2
20:02 64.0 °F 57.4 °F 29.86 in West 9.0 mph 15.0 mph 79 % 0.00 in 12 W/m2
20:07 64.0 °F 57.4 °F 29.86 in WSW 10.0 mph 19.0 mph 79 % 0.00 in 11 W/m2
20:12 64.0 °F 57.4 °F 29.86 in WSW 10.0 mph 19.0 mph 79 % 0.00 in 11 W/m2
20:17 63.9 °F 57.6 °F 29.86 in WSW 8.0 mph 15.0 mph 80 % 0.00 in 7 W/m2
20:22 63.9 °F 57.6 °F 29.86 in WSW 8.0 mph 14.0 mph 80 % 0.00 in 7 W/m2
20:27 63.9 °F 57.6 °F 29.86 in WSW 8.0 mph 14.0 mph 80 % 0.00 in 9 W/m2
20:32 63.7 °F 57.4 °F 29.86 in WSW 7.0 mph 13.0 mph 80 % 0.00 in 12 W/m2
20:37 63.7 °F 57.4 °F 29.86 in WSW 7.0 mph 11.0 mph 80 % 0.00 in 14 W/m2
20:42 63.7 °F 57.7 °F 29.86 in WSW 7.0 mph 11.0 mph 81 % 0.00 in 21 W/m2
20:47 63.7 °F 57.7 °F 29.86 in WSW 8.0 mph 14.0 mph 81 % 0.00 in 23 W/m2
20:52 63.7 °F 57.7 °F 29.86 in WSW 8.0 mph 14.0 mph 81 % 0.00 in 18 W/m2
20:57 63.3 °F 57.4 °F 29.86 in WSW 8.0 mph 14.0 mph 81 % 0.00 in 11 W/m2
21:02 63.3 °F 57.7 °F 29.86 in WSW 9.0 mph 14.0 mph 82 % 0.00 in 7 W/m2
21:07 63.1 °F 57.6 °F 29.86 in WSW 9.0 mph 13.0 mph 82 % 0.00 in 5 W/m2
21:12 63.0 °F 57.7 °F 29.86 in WSW 8.0 mph 15.0 mph 83 % 0.00 in 5 W/m2
21:17 62.8 °F 57.5 °F 29.86 in WSW 8.0 mph 15.0 mph 83 % 0.00 in 0 W/m2
21:22 62.8 °F 57.9 °F 29.86 in WSW 7.0 mph 11.0 mph 84 % 0.00 in 0 W/m2
21:27 62.6 °F 57.7 °F 29.86 in SW 8.0 mph 14.0 mph 84 % 0.00 in 0 W/m2
21:32 62.4 °F 57.5 °F 29.86 in SW 9.0 mph 15.0 mph 84 % 0.00 in 0 W/m2
21:37 62.4 °F 57.8 °F 29.86 in WSW 8.0 mph 15.0 mph 85 % 0.00 in 0 W/m2
21:42 62.2 °F 57.7 °F 29.86 in WSW 8.0 mph 14.0 mph 85 % 0.00 in 0 W/m2
21:47 62.2 °F 57.7 °F 29.86 in WSW 7.0 mph 14.0 mph 85 % 0.00 in 0 W/m2
21:52 62.2 °F 57.7 °F 29.86 in WSW 8.0 mph 13.0 mph 85 % 0.00 in 0 W/m2
21:57 62.1 °F 57.5 °F 29.86 in SW 8.0 mph 13.0 mph 85 % 0.00 in 0 W/m2
22:02 62.1 °F 57.8 °F 29.86 in SW 8.0 mph 12.0 mph 86 % 0.00 in 0 W/m2
22:07 61.9 °F 57.6 °F 29.86 in SW 7.0 mph 11.0 mph 86 % 0.00 in 0 W/m2
22:12 61.9 °F 57.6 °F 29.86 in SW 7.0 mph 11.0 mph 86 % 0.00 in 0 W/m2
22:17 61.9 °F 58.0 °F 29.86 in SW 7.0 mph 12.0 mph 87 % 0.00 in 0 W/m2
22:22 61.9 °F 58.0 °F 29.86 in SW 7.0 mph 12.0 mph 87 % 0.00 in 0 W/m2
22:27 61.7 °F 57.8 °F 29.86 in SW 7.0 mph 10.0 mph 87 % 0.00 in 0 W/m2
22:32 61.7 °F 57.8 °F 29.86 in SW 6.0 mph 11.0 mph 87 % 0.00 in 0 W/m2
22:38 61.7 °F 57.8 °F 29.86 in WSW 7.0 mph 12.0 mph 87 % 0.00 in 0 W/m2
22:43 61.5 °F 57.6 °F 29.86 in WSW 8.0 mph 13.0 mph 87 % 0.00 in 0 W/m2
22:48 61.5 °F 57.6 °F 29.86 in WSW 7.0 mph 13.0 mph 87 % 0.00 in 0 W/m2
22:53 61.5 °F 57.6 °F 29.85 in WSW 7.0 mph 12.0 mph 87 % 0.00 in 0 W/m2
22:58 61.7 °F 57.8 °F 29.85 in SW 8.0 mph 12.0 mph 87 % 0.00 in 0 W/m2
23:03 61.7 °F 57.8 °F 29.85 in SW 8.0 mph 12.0 mph 87 % 0.00 in 0 W/m2
23:08 61.5 °F 57.9 °F 29.85 in WSW 8.0 mph 12.0 mph 88 % 0.00 in 0 W/m2
23:13 61.5 °F 57.9 °F 29.85 in WSW 7.0 mph 13.0 mph 88 % 0.00 in 0 W/m2
23:18 61.3 °F 57.8 °F 29.85 in WSW 8.0 mph 13.0 mph 88 % 0.00 in 0 W/m2
23:23 61.3 °F 58.1 °F 29.85 in WSW 8.0 mph 13.0 mph 89 % 0.00 in 0 W/m2
23:28 61.2 °F 57.9 °F 29.85 in WSW 8.0 mph 13.0 mph 89 % 0.00 in 0 W/m2
23:33 61.2 °F 57.9 °F 29.85 in WSW 8.0 mph 13.0 mph 89 % 0.00 in 0 W/m2
23:38 61.2 °F 57.9 °F 29.85 in WSW 7.0 mph 11.0 mph 89 % 0.00 in 0 W/m2
23:43 61.2 °F 57.9 °F 29.85 in WSW 7.0 mph 12.0 mph 89 % 0.00 in 0 W/m2
23:48 61.2 °F 57.9 °F 29.85 in WSW 8.0 mph 12.0 mph 89 % 0.00 in 0 W/m2
23:53 61.2 °F 57.9 °F 29.85 in WSW 8.0 mph 11.0 mph 89 % 0.00 in 0 W/m2
23:58 61.2 °F 57.6 °F 29.85 in WSW 7.0 mph 12.0 mph 88 % 0.00 in 0 W/m2
Delerius-Weather
Compliments of Weather Underground - 2.25 mb

Data updates at regular intervals.